Time;durP1;ratioP1;P1;durP2;ratioP2;P2;SDS_P1;SDS_P2;PMS_P1;PMS_P2;Temp;Humidity;BMP_temperature;BMP_pressure;BME280_temperature;BME280_humidity;BME280_pressure;Samples;Min_cycle;Max_cycle;Signal;HPM_P1;HPM_P2
2023/12/06 00:00:56;;;;;;;;;;;;;;;;;;5025443;28;42893;-90
2023/12/06 00:03:21;;;;;;;;;;;17.10;52.60;;;;;;5025902;28;42759;-81
2023/12/06 00:05:47;;;;;;;;;;;16.90;53.30;;;;;;5022844;28;42854;-82
2023/12/06 00:08:12;;;;;;;;;;;17.00;52.60;;;;;;5024590;28;43543;-80
2023/12/06 00:10:38;;;;;;;;;;;;;;;;;;5024499;28;42943;-89
2023/12/06 00:13:04;;;;;;;;;;;17.00;52.50;;;;;;5023356;28;43579;-88
2023/12/06 00:15:29;;;;;;;;;;;17.00;52.60;;;;;;5024516;28;42965;-90
2023/12/06 00:17:55;;;;;;;;;;;17.00;52.50;;;;;;5024250;28;43052;-90
2023/12/06 00:20:20;;;;;;;;;;;17.00;52.50;;;;;;5025225;28;42939;-88
2023/12/06 00:22:46;;;;;;;;;;;17.00;52.50;;;;;;5024509;28;43597;-87
2023/12/06 00:25:11;;;;;;;;;;;16.90;53.10;;;;;;5024710;28;43222;-89
2023/12/06 00:27:38;;;;;;;;;;;17.00;52.50;;;;;;5025079;28;42947;-88
2023/12/06 00:30:04;;;;;;;;;;;17.00;53.10;;;;;;5025206;28;42901;-89
2023/12/06 00:32:29;;;;;;;;;;;17.00;53.10;;;;;;5024222;28;43546;-89
2023/12/06 00:34:55;;;;;;;;;;;17.00;53.20;;;;;;5025156;28;43143;-81
2023/12/06 00:37:21;;;;;;;;;;;17.00;52.60;;;;;;5024441;28;42809;-81
2023/12/06 00:39:46;;;;;;;;;;;17.00;53.20;;;;;;5025737;28;42836;-85
2023/12/06 00:42:12;;;;;;;;;;;16.90;52.50;;;;;;5024923;28;42948;-81
2023/12/06 00:44:37;;;;;;;;;;;16.90;53.20;;;;;;5025688;28;42903;-81
2023/12/06 00:47:03;;;;;;;;;;;16.70;53.20;;;;;;5025228;28;42853;-82
2023/12/06 00:49:28;;;;;;;;;;;16.90;53.00;;;;;;5024679;28;43037;-81
2023/12/06 00:51:54;;;;;;;;;;;17.00;52.50;;;;;;5024730;28;43901;-85
2023/12/06 00:54:19;;;;;;;;;;;17.00;52.50;;;;;;5023564;28;42944;-81
2023/12/06 00:56:45;;;;;;;;;;;16.90;53.10;;;;;;5024349;28;43911;-85
2023/12/06 00:59:10;;;;;;;;;;;16.90;53.20;;;;;;5025061;28;42921;-81
2023/12/06 01:01:36;;;;;;;;;;;16.90;53.10;;;;;;5025629;28;43104;-81
2023/12/06 01:04:02;;;;;;;;;;;16.90;52.40;;;;;;5025104;28;42894;-84
2023/12/06 01:06:27;;;;;;;;;;;16.90;52.40;;;;;;5025597;28;42829;-81
2023/12/06 01:08:53;;;;;;;;;;;16.90;52.40;;;;;;5025154;28;42951;-85
2023/12/06 01:11:19;;;;;;;;;;;16.90;52.40;;;;;;5024620;28;43200;-81
2023/12/06 01:13:44;;;;;;;;;;;16.90;52.40;;;;;;5024546;28;43472;-85
2023/12/06 01:16:10;;;;;;;;;;;16.90;53.20;;;;;;5023717;28;42908;-84
2023/12/06 01:18:35;;;;;;;;;;;16.90;53.10;;;;;;5024810;28;42923;-84
2023/12/06 01:21:01;;;;;;;;;;;16.90;52.40;;;;;;5025035;28;43094;-88
2023/12/06 01:23:26;;;;;;;;;;;16.90;52.40;;;;;;5024870;28;43189;-86
2023/12/06 01:25:52;;;;;;;;;;;16.90;52.50;;;;;;5024044;28;43446;-84
2023/12/06 01:28:17;;;;;;;;;;;16.80;53.00;;;;;;5029238;28;42903;-82
2023/12/06 01:30:43;;;;;;;;;;;16.90;53.30;;;;;;5037987;28;42994;-89
2023/12/06 01:33:08;;;;;;;;;;;16.90;53.10;;;;;;5026206;28;42821;-84
2023/12/06 01:35:34;;;;;;;;;;;16.90;53.60;;;;;;5026394;28;43027;-87
2023/12/06 01:37:59;;;;;;;;;;;16.90;53.10;;;;;;5024337;28;43019;-91
2023/12/06 01:40:25;;;;;;;;;;;16.80;52.30;;;;;;5026847;28;43184;-88
2023/12/06 01:42:50;;;;;;;;;;;16.80;52.40;;;;;;5027977;28;42950;-84
2023/12/06 01:45:16;;;;;;;;;;;16.90;52.40;;;;;;5025174;28;43751;-87
2023/12/06 01:47:42;;;;;;;;;;;16.90;52.40;;;;;;5005907;28;42897;-84
2023/12/06 01:50:08;;;;;;;;;;;16.80;53.00;;;;;;5005973;28;43731;-84
2023/12/06 01:52:34;;;;;;;;;;;16.80;52.40;;;;;;5006077;28;42986;-82
2023/12/06 01:55:00;;;;;;;;;;;16.90;52.40;;;;;;5007377;28;42854;-90
2023/12/06 01:57:26;;;;;;;;;;;16.90;52.40;;;;;;5007444;28;43097;-84
2023/12/06 01:59:53;;;;;;;;;;;16.90;52.50;;;;;;5007644;28;43930;-82
2023/12/06 02:02:18;;;;;;;;;;;16.90;52.50;;;;;;5007033;28;42889;-90
2023/12/06 02:04:44;;;;;;;;;;;16.80;53.30;;;;;;5007249;28;43202;-90
2023/12/06 02:07:10;;;;;;;;;;;16.90;52.50;;;;;;5007530;28;42927;-91
2023/12/06 02:09:35;;;;;;;;;;;16.90;52.50;;;;;;5007075;28;43141;-84
2023/12/06 02:12:01;;;;;;;;;;;16.80;53.30;;;;;;5007435;28;43006;-88
2023/12/06 02:14:27;;;;;;;;;;;16.80;52.40;;;;;;5004674;28;44496;-83
2023/12/06 02:16:52;;;;;;;;;;;16.80;52.50;;;;;;5007317;28;42873;-83
2023/12/06 02:19:21;;;;;;;;;;;16.70;52.40;;;;;;5006632;28;43565;-84
2023/12/06 02:21:46;;;;;;;;;;;16.90;52.50;;;;;;5007168;28;43092;-88
2023/12/06 02:24:12;;;;;;;;;;;16.80;52.50;;;;;;5007415;28;43562;-89
2023/12/06 02:26:38;;;;;;;;;;;16.90;52.50;;;;;;5007009;28;42889;-88
2023/12/06 02:29:03;;;;;;;;;;;16.80;52.50;;;;;;5006301;28;42960;-88
2023/12/06 02:31:29;;;;;;;;;;;16.80;52.50;;;;;;5006580;28;42911;-84
2023/12/06 02:33:54;;;;;;;;;;;16.80;52.40;;;;;;5006079;28;42921;-83
2023/12/06 02:36:21;;;;;;;;;;;16.80;52.60;;;;;;5006824;28;42898;-83
2023/12/06 02:38:47;;;;;;;;;;;16.80;52.50;;;;;;5006231;28;43646;-84
2023/12/06 02:41:13;;;;;;;;;;;16.80;52.40;;;;;;5007064;28;42933;-90
2023/12/06 02:43:39;;;;;;;;;;;16.80;52.40;;;;;;5006133;28;43747;-88
2023/12/06 02:46:06;;;;;;;;;;;16.80;52.50;;;;;;5005981;28;43004;-85
2023/12/06 02:48:32;;;;;;;;;;;16.80;52.50;;;;;;5006066;28;42880;-91
2023/12/06 02:50:58;;;;;;;;;;;16.70;52.50;;;;;;5021707;28;42962;-83
2023/12/06 02:53:23;;;;;;;;;;;17.40;52.80;;;;;;5006643;28;43534;-84
2023/12/06 02:55:49;;;;;;;;;;;16.80;52.50;;;;;;5005974;28;43074;-84
2023/12/06 02:58:14;;;;;;;;;;;16.80;52.50;;;;;;5005605;28;42928;-84
2023/12/06 03:00:40;;;;;;;;;;;16.70;52.50;;;;;;5006663;28;42885;-83
2023/12/06 03:03:05;;;;;;;;;;;16.70;52.50;;;;;;5006452;28;42924;-87
2023/12/06 03:05:31;;;;;;;;;;;16.80;52.50;;;;;;5005574;28;42972;-83
2023/12/06 03:07:56;;;;;;;;;;;16.70;52.50;;;;;;5006596;28;42936;-87
2023/12/06 03:10:22;;;;;;;;;;;16.70;52.50;;;;;;5005743;28;42869;-84
2023/12/06 03:12:47;;;;;;;;;;;16.90;52.60;;;;;;5004023;28;44561;-85
2023/12/06 03:15:13;;;;;;;;;;;16.80;52.50;;;;;;5006504;28;42937;-83
2023/12/06 03:17:38;;;;;;;;;;;16.80;52.50;;;;;;5006443;28;43020;-86
2023/12/06 03:20:06;;;;;;;;;;;16.70;52.50;;;;;;5005858;28;42885;-84
2023/12/06 03:22:32;;;;;;;;;;;16.80;52.50;;;;;;5005506;28;42917;-87
2023/12/06 03:24:57;;;;;;;;;;;16.70;52.50;;;;;;5006084;28;43110;-83
2023/12/06 03:27:23;;;;;;;;;;;16.80;52.50;;;;;;5005648;28;42917;-84
2023/12/06 03:29:49;;;;;;;;;;;16.70;52.50;;;;;;5005982;28;43221;-83
2023/12/06 03:32:14;;;;;;;;;;;16.80;52.50;;;;;;5005580;28;43656;-83
2023/12/06 03:34:40;;;;;;;;;;;16.80;52.50;;;;;;5004977;28;42973;-83
2023/12/06 03:37:06;;;;;;;;;;;16.80;52.50;;;;;;5005030;28;43536;-85
2023/12/06 03:39:32;;;;;;;;;;;16.80;52.50;;;;;;5004094;28;42948;-87
2023/12/06 03:41:57;;;;;;;;;;;16.70;52.50;;;;;;5020398;28;44579;-84
2023/12/06 03:44:23;;;;;;;;;;;16.80;52.50;;;;;;5016545;28;43055;-83
2023/12/06 03:46:48;;;;;;;;;;;16.80;52.50;;;;;;5027230;28;43792;-83
2023/12/06 03:49:14;;;;;;;;;;;16.60;52.50;;;;;;5033529;28;42943;-83
2023/12/06 03:51:39;;;;;;;;;;;16.80;52.60;;;;;;5024496;28;43010;-82
2023/12/06 03:54:05;;;;;;;;;;;16.60;52.50;;;;;;5025319;28;42849;-84
2023/12/06 03:56:30;;;;;;;;;;;16.70;52.60;;;;;;5023699;28;43377;-90
2023/12/06 03:58:56;;;;;;;;;;;16.70;53.30;;;;;;5024623;28;42891;-82
2023/12/06 04:01:21;;;;;;;;;;;16.70;52.50;;;;;;5024716;28;43538;-84
2023/12/06 04:03:47;;;;;;;;;;;16.70;52.50;;;;;;5025806;28;43006;-84
2023/12/06 04:06:13;;;;;;;;;;;16.80;52.60;;;;;;5024508;28;43376;-88
2023/12/06 04:08:39;;;;;;;;;;;16.80;52.60;;;;;;5025188;28;42947;-84
2023/12/06 04:11:04;;;;;;;;;;;16.70;52.50;;;;;;5023883;28;43510;-88
2023/12/06 04:13:30;;;;;;;;;;;16.80;52.60;;;;;;5024838;28;42915;-91
2023/12/06 04:15:55;;;;;;;;;;;16.70;52.50;;;;;;5024036;28;43669;-90
2023/12/06 04:18:21;;;;;;;;;;;16.60;53.30;;;;;;5023184;28;43274;-84
2023/12/06 04:20:46;;;;;;;;;;;16.70;52.50;;;;;;5024846;28;43725;-84
2023/12/06 04:23:12;;;;;;;;;;;16.70;52.50;;;;;;5025001;28;42853;-91
2023/12/06 04:25:37;;;;;;;;;;;16.60;53.30;;;;;;5024899;28;42997;-88
2023/12/06 04:28:03;;;;;;;;;;;16.70;52.60;;;;;;5023424;28;43027;-89
2023/12/06 04:30:28;;;;;;;;;;;16.60;52.50;;;;;;5022723;28;43650;-91
2023/12/06 04:32:54;;;;;;;;;;;16.70;52.60;;;;;;5024110;28;43243;-84
2023/12/06 04:35:19;;;;;;;;;;;16.70;52.60;;;;;;5023842;28;45646;-91
2023/12/06 04:37:45;;;;;;;;;;;16.70;52.60;;;;;;5024409;28;42980;-86
2023/12/06 04:40:11;;;;;;;;;;;16.60;52.50;;;;;;5023813;28;43736;-90
2023/12/06 04:42:36;;;;;;;;;;;16.80;52.70;;;;;;5022805;28;43049;-86
2023/12/06 04:45:02;;;;;;;;;;;16.70;52.60;;;;;;5023049;28;44636;-91
2023/12/06 04:47:27;;;;;;;;;;;16.70;52.70;;;;;;5022720;28;42919;-89
2023/12/06 04:49:53;;;;;;;;;;;16.60;52.60;;;;;;5023024;28;43405;-87
2023/12/06 04:52:18;;;;;;;;;;;16.60;52.60;;;;;;5024483;28;42942;-87
2023/12/06 04:54:44;;;;;;;;;;;16.70;52.60;;;;;;5023921;28;42912;-89
2023/12/06 04:57:09;;;;;;;;;;;16.60;52.60;;;;;;5022979;28;42947;-89
2023/12/06 04:59:35;;;;;;;;;;;16.70;52.60;;;;;;5024567;28;43652;-83
2023/12/06 05:02:00;;;;;;;;;;;16.60;52.50;;;;;;5024745;28;43016;-83
2023/12/06 05:04:27;;;;;;;;;;;16.60;52.50;;;;;;5023228;28;42964;-83
2023/12/06 05:06:53;;;;;;;;;;;16.70;52.50;;;;;;5024865;28;43215;-83
2023/12/06 05:09:18;;;;;;;;;;;16.80;53.30;;;;;;5026373;28;42991;-90
2023/12/06 05:11:44;;;;;;;;;;;16.60;52.50;;;;;;5027605;28;42931;-87
2023/12/06 05:14:10;;;;;;;;;;;16.60;52.60;;;;;;5027665;28;43574;-91
2023/12/06 05:16:35;;;;;;;;;;;16.70;52.50;;;;;;5027325;28;43099;-84
2023/12/06 05:19:01;;;;;;;;;;;16.70;52.60;;;;;;5024649;28;44217;-83
2023/12/06 05:21:26;;;;;;;;;;;16.70;52.60;;;;;;5025254;28;43065;-84
2023/12/06 05:23:52;;;;;;;;;;;16.70;52.50;;;;;;5024962;28;43287;-84
2023/12/06 05:26:18;;;;;;;;;;;16.50;52.50;;;;;;5025796;28;42954;-88
2023/12/06 05:28:43;;;;;;;;;;;16.10;52.20;;;;;;5010063;28;42912;-81
2023/12/06 05:31:09;;;;;;;;;;;16.60;52.50;;;;;;5023446;28;43076;-85
2023/12/06 05:33:34;;;;;;;;;;;16.60;53.20;;;;;;5027566;28;42993;-81
2023/12/06 05:36:00;;;;;;;;;;;16.90;52.70;;;;;;5025683;28;42878;-90
2023/12/06 05:38:25;;;;;;;;;;;16.70;53.30;;;;;;5024543;28;43108;-85
2023/12/06 05:40:51;;;;;;;;;;;16.60;52.60;;;;;;5021326;28;42952;-82
2023/12/06 05:43:16;;;;;;;;;;;16.60;53.20;;;;;;5021803;28;42928;-81
2023/12/06 05:51:48;;;;;;;;;;;16.30;44.30;;;;;;5031816;28;42963;-86
2023/12/06 05:54:14;;;;;;;;;;;16.10;44.50;;;;;;5050950;28;44422;-88
2023/12/06 05:56:39;;;;;;;;;;;16.10;44.80;;;;;;5046771;28;43019;-81
2023/12/06 05:59:05;;;;;;;;;;;15.80;43.60;;;;;;5022804;28;43745;-82
2023/12/06 06:01:31;;;;;;;;;;;15.40;43.60;;;;;;5025765;28;42902;-84
2023/12/06 06:03:56;;;;;;;;;;;15.00;43.80;;;;;;5023447;28;42954;-81
2023/12/06 06:06:22;;;;;;;;;;;14.50;43.90;;;;;;5034867;28;42968;-82
2023/12/06 06:08:47;;;;;;;;;;;14.30;44.40;;;;;;5029315;28;43050;-82
2023/12/06 06:11:13;;;;;;;;;;;14.10;45.00;;;;;;5024217;28;43045;-83
2023/12/06 06:13:39;;;;;;;;;;;14.00;43.90;;;;;;5023987;28;43824;-86
2023/12/06 06:16:04;;;;;;;;;;;13.90;44.10;;;;;;5020171;28;42961;-87
2023/12/06 06:18:30;;;;;;;;;;;14.00;43.50;;;;;;5024702;28;42971;-90
2023/12/06 06:20:55;;;;;;;;;;;14.00;44.30;;;;;;5035462;28;42931;-87
2023/12/06 06:23:21;;;;;;;;;;;13.80;43.90;;;;;;5047025;28;42852;-86
2023/12/06 06:25:46;;;;;;;;;;;13.90;43.80;;;;;;5039124;28;42931;-83
2023/12/06 06:28:12;;;;;;;;;;;14.00;44.50;;;;;;5038271;28;43845;-89
2023/12/06 06:30:38;;;;;;;;;;;13.80;45.10;;;;;;5046206;28;43071;-81
2023/12/06 06:33:03;;;;;;;;;;;13.70;44.70;;;;;;5043077;28;43491;-82
2023/12/06 06:35:29;;;;;;;;;;;13.70;44.80;;;;;;5046375;28;42909;-82
2023/12/06 06:37:54;;;;;;;;;;;13.70;45.20;;;;;;5047354;28;43542;-85
2023/12/06 06:40:22;;;;;;;;;;;13.70;45.20;;;;;;5046825;28;42941;-82
2023/12/06 06:42:48;;;;;;;;;;;13.60;45.50;;;;;;5046687;28;43094;-82
2023/12/06 06:45:13;;;;;;;;;;;13.40;44.80;;;;;;5047068;28;42978;-85
2023/12/06 06:47:39;;;;;;;;;;;13.50;45.10;;;;;;5047263;28;43395;-81
2023/12/06 06:50:04;;;;;;;;;;;13.40;44.60;;;;;;5047168;28;42919;-82
2023/12/06 06:52:33;;;;;;;;;;;13.30;44.70;;;;;;5046470;28;43500;-84
2023/12/06 06:54:59;;;;;;;;;;;13.40;45.60;;;;;;5047623;28;42958;-83
2023/12/06 06:57:24;;;;;;;;;;;13.10;46.10;;;;;;5047036;28;43402;-81
2023/12/06 06:59:50;;;;;;;;;;;13.00;46.20;;;;;;5047283;28;42822;-81
2023/12/06 07:02:16;;;;;;;;;;;13.00;45.90;;;;;;5047088;28;42929;-85
2023/12/06 07:04:42;;;;;;;;;;;13.20;46.50;;;;;;5046943;28;42891;-82
2023/12/06 07:07:08;;;;;;;;;;;13.00;46.70;;;;;;5046846;28;43851;-81
2023/12/06 07:09:34;;;;;;;;;;;12.80;46.90;;;;;;5047009;28;42979;-80
2023/12/06 07:11:59;;;;;;;;;;;13.00;47.00;;;;;;5046180;28;43002;-83
2023/12/06 07:14:25;;;;;;;;;;;12.80;47.60;;;;;;5046113;28;43000;-83
2023/12/06 07:16:50;;;;;;;;;;;12.70;47.40;;;;;;5044617;28;43598;-81
2023/12/06 07:19:16;;;;;;;;;;;12.60;48.00;;;;;;5046250;28;43086;-81
2023/12/06 07:21:41;;;;;;;;;;;12.70;48.20;;;;;;5046011;28;43601;-82
2023/12/06 07:24:07;;;;;;;;;;;12.80;47.80;;;;;;5046134;28;43068;-81
2023/12/06 07:26:32;;;;;;;;;;;12.90;48.00;;;;;;5046741;28;42951;-84
2023/12/06 07:28:58;;;;;;;;;;;12.80;48.30;;;;;;5046413;28;42952;-85
2023/12/06 07:31:23;;;;;;;;;;;12.80;47.70;;;;;;5045025;28;45370;-85
2023/12/06 07:33:50;;;;;;;;;;;12.80;47.80;;;;;;5046549;28;42926;-85
2023/12/06 07:36:16;;;;;;;;;;;12.90;47.90;;;;;;5046334;28;42927;-85
2023/12/06 07:38:42;;;;;;;;;;;13.00;48.00;;;;;;5046403;28;42954;-82
2023/12/06 07:41:07;;;;;;;;;;;12.90;47.70;;;;;;5046457;28;43010;-86
2023/12/06 07:43:33;;;;;;;;;;;13.10;47.60;;;;;;5046476;28;42904;-81
2023/12/06 07:45:58;;;;;;;;;;;13.10;47.80;;;;;;5045585;28;43084;-81
2023/12/06 07:48:25;;;;;;;;;;;13.00;47.70;;;;;;5046019;28;43014;-80
2023/12/06 07:50:51;;;;;;;;;;;13.10;48.40;;;;;;5045297;28;42883;-83
2023/12/06 07:53:17;;;;;;;;;;;13.00;48.10;;;;;;5045081;28;43141;-81
2023/12/06 07:55:42;;;;;;;;;;;13.20;48.30;;;;;;5046228;28;42889;-81
2023/12/06 07:58:08;;;;;;;;;;;13.10;48.50;;;;;;5045839;28;42935;-85
2023/12/06 08:00:33;;;;;;;;;;;13.10;47.90;;;;;;5045270;28;42928;-81
2023/12/06 08:02:59;;;;;;;;;;;13.30;48.20;;;;;;5045780;28;43080;-82
2023/12/06 08:05:24;;;;;;;;;;;13.20;48.60;;;;;;5045865;28;42849;-85
2023/12/06 08:07:50;;;;;;;;;;;13.10;48.70;;;;;;5046114;28;42948;-82
2023/12/06 08:10:22;;;;;;;;;;;13.00;49.20;;;;;;5045677;28;43844;-81
2023/12/06 08:12:48;;;;;;;;;;;13.20;48.90;;;;;;5046481;28;43009;-85
2023/12/06 08:15:14;;;;;;;;;;;13.00;49.10;;;;;;5045148;28;44420;-82
2023/12/06 08:17:41;;;;;;;;;;;;;;;;;;5044981;28;42906;-82
2023/12/06 08:20:08;;;;;;;;;;;13.20;49.00;;;;;;5046456;28;43608;-86
2023/12/06 08:22:33;;;;;;;;;;;13.30;48.80;;;;;;5049696;28;42882;-84
2023/12/06 08:24:59;;;;;;;;;;;13.20;49.40;;;;;;5048143;28;42846;-87
2023/12/06 08:27:28;;;;;;;;;;;13.30;48.70;;;;;;5045300;28;42849;-85
2023/12/06 08:29:55;;;;;;;;;;;13.30;48.80;;;;;;5045114;28;43831;-81
2023/12/06 08:32:20;;;;;;;;;;;13.30;48.80;;;;;;5045217;28;42852;-81
2023/12/06 08:34:46;;;;;;;;;;;13.30;49.10;;;;;;5045307;28;43910;-82
2023/12/06 08:37:11;;;;;;;;;;;13.20;49.60;;;;;;5045037;28;42944;-85
2023/12/06 08:39:37;;;;;;;;;;;13.20;49.30;;;;;;5045565;28;43496;-81
2023/12/06 08:42:02;;;;;;;;;;;13.20;49.20;;;;;;5045499;28;42848;-83
2023/12/06 08:44:28;;;;;;;;;;;13.40;49.60;;;;;;5044842;28;42926;-83
2023/12/06 08:46:53;;;;;;;;;;;13.30;49.60;;;;;;5044832;28;43056;-85
2023/12/06 08:49:19;;;;;;;;;;;13.40;50.30;;;;;;5044857;28;43732;-81
2023/12/06 08:51:45;;;;;;;;;;;13.40;49.70;;;;;;5045277;28;42974;-85
2023/12/06 08:54:10;;;;;;;;;;;13.50;49.60;;;;;;5045372;28;42862;-81
2023/12/06 08:56:36;;;;;;;;;;;13.50;50.00;;;;;;5043583;28;42907;-85
2023/12/06 08:59:02;;;;;;;;;;;13.50;49.20;;;;;;5045153;28;43415;-82
2023/12/06 09:01:27;;;;;;;;;;;13.50;49.50;;;;;;5045182;28;43058;-85
2023/12/06 09:03:53;;;;;;;;;;;13.40;49.90;;;;;;5044732;28;43536;-81
2023/12/06 09:06:18;;;;;;;;;;;13.70;50.10;;;;;;5045086;28;42919;-85
2023/12/06 09:08:44;;;;;;;;;;;13.50;50.20;;;;;;5044985;28;43533;-85
2023/12/06 09:11:09;;;;;;;;;;;13.70;49.80;;;;;;5044904;28;42867;-86
2023/12/06 09:13:35;;;;;;;;;;;13.50;50.30;;;;;;5044358;28;42987;-84
2023/12/06 09:16:00;;;;;;;;;;;13.60;49.80;;;;;;5044999;28;42991;-81
2023/12/06 09:18:26;;;;;;;;;;;13.60;49.80;;;;;;5045333;28;43761;-81
2023/12/06 09:20:52;;;;;;;;;;;13.60;49.80;;;;;;5045045;28;42958;-86
2023/12/06 09:23:17;;;;;;;;;;;13.60;49.70;;;;;;5044757;28;43029;-84
2023/12/06 09:25:43;;;;;;;;;;;13.50;50.30;;;;;;5044809;28;43069;-85
2023/12/06 09:28:08;;;;;;;;;;;13.70;49.80;;;;;;5044967;28;43438;-86
2023/12/06 09:30:34;;;;;;;;;;;13.50;50.00;;;;;;5044742;28;43010;-80
2023/12/06 09:32:59;;;;;;;;;;;13.30;50.10;;;;;;5043814;28;43492;-82
2023/12/06 09:35:25;;;;;;;;;;;13.40;50.50;;;;;;5045089;28;42780;-85
2023/12/06 09:37:51;;;;;;;;;;;13.30;50.50;;;;;;5044023;28;43544;-85
2023/12/06 09:40:16;;;;;;;;;;;13.40;50.50;;;;;;5045003;28;43022;-84
2023/12/06 09:42:43;;;;;;;;;;;13.50;50.60;;;;;;5045237;28;42847;-85
2023/12/06 09:45:09;;;;;;;;;;;13.50;50.20;;;;;;5043998;28;42915;-86
2023/12/06 09:47:35;;;;;;;;;;;13.50;50.00;;;;;;5043121;28;45334;-86
2023/12/06 09:50:01;;;;;;;;;;;13.50;49.60;;;;;;5045123;28;42781;-86
2023/12/06 09:52:26;;;;;;;;;;;13.60;49.20;;;;;;5044378;28;43597;-83
2023/12/06 09:54:52;;;;;;;;;;;13.70;48.90;;;;;;5045033;28;42791;-80
2023/12/06 09:57:18;;;;;;;;;;;13.60;48.30;;;;;;5047778;28;43078;-84
2023/12/06 09:59:43;;;;;;;;;;;13.60;48.10;;;;;;5048098;28;42943;-85
2023/12/06 10:02:09;;;;;;;;;;;13.60;48.00;;;;;;5048203;28;42888;-80
2023/12/06 10:04:35;;;;;;;;;;;13.60;47.60;;;;;;5048024;28;43022;-82
2023/12/06 10:07:01;;;;;;;;;;;13.60;47.60;;;;;;5048777;28;42993;-81
2023/12/06 10:09:26;;;;;;;;;;;13.70;47.70;;;;;;5048036;28;42888;-83
2023/12/06 10:11:52;;;;;;;;;;;13.50;48.20;;;;;;5047935;28;42883;-82
2023/12/06 10:14:18;;;;;;;;;;;13.70;48.60;;;;;;5047623;28;42896;-83
2023/12/06 10:16:45;;;;;;;;;;;13.60;49.00;;;;;;5047262;28;43009;-85
2023/12/06 10:19:11;;;;;;;;;;;13.60;48.40;;;;;;5047127;28;42812;-85
2023/12/06 10:21:39;;;;;;;;;;;13.80;48.20;;;;;;5047416;28;42760;-82
2023/12/06 10:24:07;;;;;;;;;;;13.70;48.60;;;;;;5047663;28;42852;-85
2023/12/06 10:26:32;;;;;;;;;;;13.60;48.30;;;;;;5047140;28;42795;-81
2023/12/06 10:28:58;;;;;;;;;;;13.60;48.50;;;;;;5047296;28;42773;-84
2023/12/06 10:31:25;;;;;;;;;;;13.80;48.00;;;;;;5047633;28;42943;-83
2023/12/06 10:33:55;;;;;;;;;;;13.70;47.90;;;;;;5046379;28;42943;-81
2023/12/06 10:36:21;;;;;;;;;;;13.80;48.30;;;;;;5048102;28;43553;-85
2023/12/06 10:38:47;;;;;;;;;;;13.90;48.20;;;;;;5051196;28;43149;-82
2023/12/06 10:41:16;;;;;;;;;;;13.60;47.60;;;;;;5056095;28;42745;-85
2023/12/06 10:43:42;;;;;;;;;;;13.80;48.40;;;;;;5047568;28;42956;-81
2023/12/06 10:46:08;;;;;;;;;;;13.90;48.00;;;;;;5046635;28;43614;-85
2023/12/06 10:48:35;;;;;;;;;;;13.80;47.90;;;;;;5045874;28;43076;-81
2023/12/06 10:51:02;;;;;;;;;;;13.90;47.80;;;;;;5047047;28;43754;-83
2023/12/06 10:53:28;;;;;;;;;;;13.50;48.30;;;;;;5046729;28;42994;-81
2023/12/06 10:55:53;;;;;;;;;;;13.90;48.80;;;;;;5046946;28;42916;-84
2023/12/06 10:58:21;;;;;;;;;;;13.90;48.60;;;;;;5047061;28;42998;-81
2023/12/06 11:00:47;;;;;;;;;;;13.90;48.50;;;;;;5046826;28;42897;-82
2023/12/06 11:03:13;;;;;;;;;;;13.90;48.30;;;;;;5046704;28;42922;-84
2023/12/06 11:05:41;;;;;;;;;;;14.00;48.50;;;;;;5046713;28;42858;-81
2023/12/06 11:08:06;;;;;;;;;;;14.10;48.10;;;;;;5045396;28;43049;-85
2023/12/06 11:10:44;;;;;;;;;;;14.00;48.10;;;;;;5044603;28;43003;-81
2023/12/06 11:13:12;;;;;;;;;;;14.00;48.10;;;;;;5046026;28;43118;-81
2023/12/06 11:15:45;;;;;;;;;;;14.00;48.60;;;;;;5046224;28;43649;-85
2023/12/06 11:18:18;;;;;;;;;;;14.20;48.60;;;;;;5046724;28;43049;-85
2023/12/06 11:20:43;;;;;;;;;;;14.30;48.60;;;;;;5046566;28;43532;-82
2023/12/06 11:23:09;;;;;;;;;;;14.20;48.60;;;;;;5046775;28;42842;-81
2023/12/06 11:25:44;;;;;;;;;;;14.30;48.80;;;;;;5046199;28;42959;-83
2023/12/06 11:28:10;;;;;;;;;;;14.20;48.90;;;;;;5046148;28;42912;-86
2023/12/06 11:30:44;;;;;;;;;;;14.30;48.90;;;;;;5046065;28;43705;-85
2023/12/06 11:33:10;;;;;;;;;;;14.20;48.40;;;;;;5046489;28;43010;-87
2023/12/06 11:35:49;;;;;;;;;;;14.40;48.90;;;;;;5046218;28;43592;-84
2023/12/06 11:38:15;;;;;;;;;;;14.20;48.60;;;;;;5045664;28;43045;-86
2023/12/06 11:40:50;;;;;;;;;;;14.30;48.80;;;;;;5045975;28;43481;-81
2023/12/06 11:43:16;;;;;;;;;;;14.30;48.50;;;;;;5044525;28;42727;-82
2023/12/06 11:45:42;;;;;;;;;;;14.40;48.60;;;;;;5043715;28;44014;-81
2023/12/06 11:48:11;;;;;;;;;;;14.30;48.50;;;;;;5046362;28;42942;-84
2023/12/06 11:50:40;;;;;;;;;;;14.50;48.90;;;;;;5045170;28;43465;-85
2023/12/06 11:53:06;;;;;;;;;;;14.20;48.90;;;;;;5046502;28;42739;-81
2023/12/06 11:55:31;;;;;;;;;;;13.70;48.80;;;;;;5045849;28;43333;-87
2023/12/06 11:58:01;;;;;;;;;;;14.20;49.30;;;;;;5046029;28;42923;-83
2023/12/06 12:00:28;;;;;;;;;;;14.30;49.40;;;;;;5046005;28;42942;-86
2023/12/06 12:02:54;;;;;;;;;;;14.20;49.70;;;;;;5045804;28;43097;-86
2023/12/06 12:05:19;;;;;;;;;;;14.00;49.10;;;;;;5045760;28;43472;-83
2023/12/06 12:07:46;;;;;;;;;;;14.20;49.20;;;;;;5046369;28;42869;-81
2023/12/06 12:10:12;;;;;;;;;;;14.20;49.40;;;;;;5045941;28;42894;-87
2023/12/06 12:12:37;;;;;;;;;;;14.20;49.10;;;;;;5046330;28;42958;-82
2023/12/06 12:15:04;;;;;;;;;;;13.60;49.30;;;;;;5045848;28;42865;-83
2023/12/06 12:17:30;;;;;;;;;;;14.10;49.60;;;;;;5045441;28;42742;-81
2023/12/06 12:19:56;;;;;;;;;;;14.30;49.40;;;;;;5045547;28;42931;-81
2023/12/06 12:22:21;;;;;;;;;;;14.30;49.50;;;;;;5045664;28;43271;-86
2023/12/06 12:24:46;;;;;;;;;;;14.00;49.20;;;;;;5045636;28;43085;-84
2023/12/06 12:27:12;;;;;;;;;;;14.20;49.60;;;;;;5045424;28;43017;-81
2023/12/06 12:29:38;;;;;;;;;;;14.30;49.80;;;;;;5046389;28;43165;-81
2023/12/06 12:32:04;;;;;;;;;;;14.20;49.60;;;;;;5045232;28;43020;-83
2023/12/06 12:34:29;;;;;;;;;;;14.20;49.80;;;;;;5044726;28;44468;-81
2023/12/06 12:36:59;;;;;;;;;;;14.30;50.10;;;;;;5044859;28;59755;-84
2023/12/06 12:39:25;;;;;;;;;;;14.10;49.90;;;;;;5043981;28;44567;-81
2023/12/06 12:41:51;;;;;;;;;;;14.10;50.10;;;;;;5045548;28;42895;-84
2023/12/06 12:44:17;;;;;;;;;;;14.10;50.50;;;;;;5044909;28;43582;-85
2023/12/06 12:46:43;;;;;;;;;;;13.70;49.90;;;;;;5045528;28;42952;-83
2023/12/06 12:49:09;;;;;;;;;;;14.20;50.10;;;;;;5044010;28;44687;-81
2023/12/06 12:51:35;;;;;;;;;;;14.00;50.00;;;;;;5045344;28;42837;-83
2023/12/06 12:54:01;;;;;;;;;;;14.20;50.50;;;;;;5045350;28;42792;-81
2023/12/06 12:56:26;;;;;;;;;;;14.10;49.70;;;;;;5047559;28;42860;-84
2023/12/06 12:58:53;;;;;;;;;;;14.30;49.80;;;;;;5054911;28;43469;-81
2023/12/06 13:01:19;;;;;;;;;;;14.20;50.50;;;;;;5044974;28;43460;-81
2023/12/06 13:03:45;;;;;;;;;;;14.10;50.10;;;;;;5042706;28;45533;-84
2023/12/06 13:06:11;;;;;;;;;;;14.20;50.30;;;;;;5044949;28;43006;-85
2023/12/06 13:08:36;;;;;;;;;;;14.20;50.40;;;;;;5044844;28;42928;-81
2023/12/06 13:11:02;;;;;;;;;;;14.20;50.20;;;;;;5045203;28;42960;-81
2023/12/06 13:13:27;;;;;;;;;;;14.40;50.20;;;;;;5045099;28;43450;-80
2023/12/06 13:15:54;;;;;;;;;;;14.20;50.00;;;;;;5044851;28;43029;-82
2023/12/06 13:18:19;;;;;;;;;;;14.40;50.00;;;;;;5044328;28;44378;-86
2023/12/06 13:20:45;;;;;;;;;;;14.20;49.70;;;;;;5045625;28;43068;-82
2023/12/06 13:23:11;;;;;;;;;;;14.20;50.00;;;;;;5044450;28;44555;-81
2023/12/06 13:25:36;;;;;;;;;;;14.20;49.70;;;;;;5044866;28;42939;-81
2023/12/06 13:28:02;;;;;;;;;;;13.70;49.30;;;;;;5044412;28;42903;-84
2023/12/06 13:30:27;;;;;;;;;;;14.30;49.70;;;;;;5047489;28;42804;-86
2023/12/06 13:32:53;;;;;;;;;;;14.00;49.70;;;;;;5048284;28;42903;-81
2023/12/06 13:35:18;;;;;;;;;;;14.00;49.80;;;;;;5048302;28;42714;-86
2023/12/06 13:37:44;;;;;;;;;;;14.10;49.70;;;;;;5048025;28;43569;-86
2023/12/06 13:40:11;;;;;;;;;;;14.20;49.50;;;;;;5048187;28;43035;-81
2023/12/06 13:42:36;;;;;;;;;;;14.50;49.80;;;;;;5047850;28;43803;-82
2023/12/06 13:45:02;;;;;;;;;;;14.20;50.00;;;;;;5047843;28;43044;-83
2023/12/06 13:47:27;;;;;;;;;;;14.20;49.50;;;;;;5048031;28;43334;-81
2023/12/06 13:49:53;;;;;;;;;;;14.10;50.20;;;;;;5047370;28;42892;-86
2023/12/06 13:52:18;;;;;;;;;;;14.20;49.70;;;;;;5045483;28;44427;-81
2023/12/06 13:54:44;;;;;;;;;;;13.90;50.00;;;;;;5047545;28;42908;-81
2023/12/06 13:57:10;;;;;;;;;;;14.20;50.20;;;;;;5031405;28;43505;-81
2023/12/06 13:59:35;;;;;;;;;;;14.20;50.00;;;;;;5026578;28;43039;-81
2023/12/06 14:02:01;;;;;;;;;;;14.20;49.60;;;;;;5026105;28;43890;-81
2023/12/06 14:04:26;;;;;;;;;;;14.20;50.10;;;;;;5026508;28;42888;-82
2023/12/06 14:06:52;;;;;;;;;;;14.30;50.00;;;;;;5026789;28;42919;-79
2023/12/06 14:09:18;;;;;;;;;;;14.30;49.90;;;;;;5026941;28;42873;-82
2023/12/06 14:11:44;;;;;;;;;;;14.20;49.60;;;;;;5022577;28;44250;-81
2023/12/06 14:14:10;;;;;;;;;;;14.30;49.80;;;;;;5023002;28;43201;-80
2023/12/06 14:16:35;;;;;;;;;;;14.30;50.10;;;;;;5024466;28;43054;-81